Jack Frost Mountain, Pennsylvania
Current Conditions -  °F | °C
As of 6:53 AM on Thursday 23 Oct 2014 (Local Time) from KMPO Reporting Station
Light Rain Light Rain  
Wind Chill: 35°   Ceiling: 800
Heat Index: 43°   Visibility: 10mi
Dew Point: 41°   Wind: 17mph
Humidity: 93%   Direction: 330°NNW
Pressure: 29.78"   Gusts: 25mph
Location:  41.1°N, 75.63°W
Report Text: KMPO 231053Z AUTO 33015G22KT 10SM -RA BKN008 OVC013 06/05 A2978 RMK AO2 SLP093 T00610050 TSNO PNO $
Loading
Personal Weather Stations






























Interactive Weather Map
Tropical Storm Tracking
New forecast layout! Learn more

10-Day Weather Forecast

Advertisements
Track Severe Weather on mobile